Terminal Aerodrome Forecast
Issued by NWS Boston, MA

Home | Current Version | Previous Version | Text Only | Print | Product List | Glossary On
Versions: 1 2 3 4 5 6 7 8 9 10 11 12 13 14 15 16 17 18 19 20 21 22 23 24 25 26 27 28 29 30 31 32 33 34 35 36 37 38 39 40 41 42 43 44 45
182
FTUS41 KBOX 301434 AAA
TAFBDL
TAF AMD
KBDL 301434Z 3015/3118 36007KT P6SM FEW060 BKN250
     FM301800 VRB03KT P6SM SCT060 BKN100
     FM302100 17005KT P6SM VCSH BKN100
     FM310400 00000KT 6SM BR VCSH OVC080
     FM310600 00000KT 3SM BR VCSH OVC060
     FM311200 VRB03KT 2SM BR VCSH OVC015
     FM311600 10004KT 3SM BR VCSH OVC015=

USA.gov is the U.S. government's official web portal to all federal, state and local government web resources and services.